sensor_id;sensor_type;location;lat;lon;timestamp;pressure;altitude;pressure_sealevel;temperature;humidity
59009;BME280;44794;42.652;23.318;2023-12-20T00:01:22;94925.69;;;4.26;100.00
59009;BME280;44794;42.652;23.318;2023-12-20T00:03:48;94930.44;;;4.35;100.00
59009;BME280;44794;42.652;23.318;2023-12-20T00:06:13;94919.03;;;4.22;100.00
59009;BME280;44794;42.652;23.318;2023-12-20T00:08:38;94913.13;;;4.39;100.00
59009;BME280;44794;42.652;23.318;2023-12-20T00:11:04;94913.47;;;4.49;100.00
59009;BME280;44794;42.652;23.318;2023-12-20T00:13:29;94910.06;;;4.49;100.00
59009;BME280;44794;42.652;23.318;2023-12-20T00:15:54;94909.19;;;4.50;100.00
59009;BME280;44794;42.652;23.318;2023-12-20T00:18:19;94909.88;;;4.53;100.00
59009;BME280;44794;42.652;23.318;2023-12-20T00:20:45;94910.84;;;4.51;100.00
59009;BME280;44794;42.652;23.318;2023-12-20T00:23:10;94909.19;;;4.50;100.00
59009;BME280;44794;42.652;23.318;2023-12-20T00:25:35;94905.53;;;4.54;99.44
59009;BME280;44794;42.652;23.318;2023-12-20T00:28:00;94906.31;;;4.56;98.71
59009;BME280;44794;42.652;23.318;2023-12-20T00:30:26;94905.41;;;4.57;97.56
59009;BME280;44794;42.652;23.318;2023-12-20T00:32:51;94904.50;;;4.58;96.90
59009;BME280;44794;42.652;23.318;2023-12-20T00:35:17;94898.88;;;4.50;97.31
59009;BME280;44794;42.652;23.318;2023-12-20T00:37:42;94892.97;;;4.48;96.96
59009;BME280;44794;42.652;23.318;2023-12-20T00:40:08;94893.13;;;4.45;96.98
59009;BME280;44794;42.652;23.318;2023-12-20T00:42:34;94888.88;;;4.44;95.96
59009;BME280;44794;42.652;23.318;2023-12-20T00:45:01;94880.59;;;4.38;96.10
59009;BME280;44794;42.652;23.318;2023-12-20T00:47:27;94880.81;;;4.33;95.63
59009;BME280;44794;42.652;23.318;2023-12-20T00:49:53;94880.59;;;4.38;95.00
59009;BME280;44794;42.652;23.318;2023-12-20T00:52:18;94881.38;;;4.40;94.89
59009;BME280;44794;42.652;23.318;2023-12-20T00:54:44;94877.06;;;4.40;94.32
59009;BME280;44794;42.652;23.318;2023-12-20T00:57:09;94885.84;;;4.36;94.15
59009;BME280;44794;42.652;23.318;2023-12-20T00:59:34;94879.00;;;4.35;93.64
59009;BME280;44794;42.652;23.318;2023-12-20T01:02:00;94873.06;;;4.35;93.61
59009;BME280;44794;42.652;23.318;2023-12-20T01:04:25;94870.41;;;4.36;94.65
59009;BME280;44794;42.652;23.318;2023-12-20T01:06:51;94862.63;;;4.19;93.76
59009;BME280;44794;42.652;23.318;2023-12-20T01:09:16;94857.13;;;4.08;94.38
59009;BME280;44794;42.652;23.318;2023-12-20T01:11:42;94862.13;;;4.11;95.33
59009;BME280;44794;42.652;23.318;2023-12-20T01:14:08;94853.47;;;4.14;95.67
59009;BME280;44794;42.652;23.318;2023-12-20T01:16:33;94850.94;;;4.12;95.67
59009;BME280;44794;42.652;23.318;2023-12-20T01:18:58;94850.91;;;4.14;95.21
59009;BME280;44794;42.652;23.318;2023-12-20T01:21:23;94849.16;;;4.14;95.16
59009;BME280;44794;42.652;23.318;2023-12-20T01:23:49;94847.63;;;4.10;94.40
59009;BME280;44794;42.652;23.318;2023-12-20T01:26:14;94840.88;;;4.08;94.33
59009;BME280;44794;42.652;23.318;2023-12-20T01:28:40;94836.72;;;4.05;94.96
59009;BME280;44794;42.652;23.318;2023-12-20T01:31:05;94836.44;;;4.11;95.52
59009;BME280;44794;42.652;23.318;2023-12-20T01:33:30;94837.19;;;4.13;95.30
59009;BME280;44794;42.652;23.318;2023-12-20T01:35:55;94832.06;;;4.13;94.69
59009;BME280;44794;42.652;23.318;2023-12-20T01:38:21;94826.09;;;4.13;94.38
59009;BME280;44794;42.652;23.318;2023-12-20T01:40:46;94821.66;;;4.16;94.97
59009;BME280;44794;42.652;23.318;2023-12-20T01:43:13;94825.91;;;4.17;94.57
59009;BME280;44794;42.652;23.318;2023-12-20T01:45:38;94818.41;;;4.13;94.38
59009;BME280;44794;42.652;23.318;2023-12-20T01:48:03;94810.59;;;4.14;94.49
59009;BME280;44794;42.652;23.318;2023-12-20T01:50:30;94817.50;;;4.14;93.94
59009;BME280;44794;42.652;23.318;2023-12-20T01:52:56;94810.53;;;4.16;93.76
59009;BME280;44794;42.652;23.318;2023-12-20T01:55:23;94802.06;;;4.14;94.27
59009;BME280;44794;42.652;23.318;2023-12-20T01:57:49;94798.53;;;4.16;94.17
59009;BME280;44794;42.652;23.318;2023-12-20T02:00:15;94795.97;;;4.16;94.69
59009;BME280;44794;42.652;23.318;2023-12-20T02:02:41;94794.84;;;4.03;94.72
59009;BME280;44794;42.652;23.318;2023-12-20T02:05:08;94788.47;;;3.93;96.22
59009;BME280;44794;42.652;23.318;2023-12-20T02:07:34;94790.13;;;3.94;97.34
59009;BME280;44794;42.652;23.318;2023-12-20T02:10:02;94784.78;;;3.99;96.67
59009;BME280;44794;42.652;23.318;2023-12-20T02:12:27;94787.00;;;4.06;95.53
59009;BME280;44794;42.652;23.318;2023-12-20T02:14:52;94776.88;;;4.03;94.89
59009;BME280;44794;42.652;23.318;2023-12-20T02:17:19;94778.50;;;4.04;94.32
59009;BME280;44794;42.652;23.318;2023-12-20T02:19:44;94775.81;;;4.07;94.12
59009;BME280;44794;42.652;23.318;2023-12-20T02:22:10;94771.38;;;3.92;93.99
59009;BME280;44794;42.652;23.318;2023-12-20T02:24:35;94765.25;;;3.76;96.13
59009;BME280;44794;42.652;23.318;2023-12-20T02:27:00;94766.59;;;3.85;96.81
59009;BME280;44794;42.652;23.318;2023-12-20T02:29:26;94771.94;;;3.80;96.68
59009;BME280;44794;42.652;23.318;2023-12-20T02:31:51;94759.88;;;3.82;97.91
59009;BME280;44794;42.652;23.318;2023-12-20T02:34:17;94758.00;;;3.86;96.35
59009;BME280;44794;42.652;23.318;2023-12-20T02:36:42;94761.88;;;3.94;95.07
59009;BME280;44794;42.652;23.318;2023-12-20T02:39:07;94751.25;;;3.83;94.94
59009;BME280;44794;42.652;23.318;2023-12-20T02:41:33;94742.22;;;3.75;97.82
59009;BME280;44794;42.652;23.318;2023-12-20T02:43:58;94736.19;;;3.76;98.50
59009;BME280;44794;42.652;23.318;2023-12-20T02:46:23;94736.81;;;3.63;100.00
59009;BME280;44794;42.652;23.318;2023-12-20T02:48:48;94746.56;;;3.74;99.06
59009;BME280;44794;42.652;23.318;2023-12-20T02:51:14;94743.00;;;3.77;98.74
59009;BME280;44794;42.652;23.318;2023-12-20T02:53:39;94737.66;;;3.81;97.90
59009;BME280;44794;42.652;23.318;2023-12-20T02:56:04;94738.28;;;3.86;97.16
59009;BME280;44794;42.652;23.318;2023-12-20T02:58:30;94743.09;;;3.75;96.86
59009;BME280;44794;42.652;23.318;2023-12-20T03:00:55;94742.09;;;3.78;97.34
59009;BME280;44794;42.652;23.318;2023-12-20T03:03:20;94744.03;;;3.73;97.15
59009;BME280;44794;42.652;23.318;2023-12-20T03:05:45;94737.47;;;3.68;97.50
59009;BME280;44794;42.652;23.318;2023-12-20T03:08:11;94725.31;;;3.53;98.93
59009;BME280;44794;42.652;23.318;2023-12-20T03:10:36;94730.50;;;3.69;97.78
59009;BME280;44794;42.652;23.318;2023-12-20T03:13:02;94738.06;;;3.72;96.14
59009;BME280;44794;42.652;23.318;2023-12-20T03:15:27;94741.03;;;3.64;96.35
59009;BME280;44794;42.652;23.318;2023-12-20T03:17:52;94748.94;;;3.59;95.45
59009;BME280;44794;42.652;23.318;2023-12-20T03:20:20;94736.00;;;3.62;96.33
59009;BME280;44794;42.652;23.318;2023-12-20T03:22:48;94735.78;;;3.67;96.35
59009;BME280;44794;42.652;23.318;2023-12-20T03:25:15;94731.66;;;3.63;96.89
59009;BME280;44794;42.652;23.318;2023-12-20T03:27:41;94722.13;;;3.48;97.39
59009;BME280;44794;42.652;23.318;2023-12-20T03:30:11;94720.88;;;3.56;96.70
59009;BME280;44794;42.652;23.318;2023-12-20T03:32:39;94729.34;;;3.58;96.16
59009;BME280;44794;42.652;23.318;2023-12-20T03:35:04;94721.75;;;3.37;96.44
59009;BME280;44794;42.652;23.318;2023-12-20T03:37:32;94713.50;;;3.30;99.32
59009;BME280;44794;42.652;23.318;2023-12-20T03:40:00;94725.88;;;3.41;95.98
59009;BME280;44794;42.652;23.318;2023-12-20T03:42:28;94713.66;;;3.46;94.79
59009;BME280;44794;42.652;23.318;2023-12-20T03:44:54;94724.72;;;3.46;94.34
59009;BME280;44794;42.652;23.318;2023-12-20T03:47:19;94728.91;;;3.49;94.00
59009;BME280;44794;42.652;23.318;2023-12-20T03:49:44;94719.19;;;3.37;93.79
59009;BME280;44794;42.652;23.318;2023-12-20T03:52:30;94717.09;;;3.26;94.15
59009;BME280;44794;42.652;23.318;2023-12-20T03:55:04;94712.66;;;3.30;95.19
59009;BME280;44794;42.652;23.318;2023-12-20T03:57:30;94714.22;;;3.34;94.86
59009;BME280;44794;42.652;23.318;2023-12-20T03:59:57;94709.19;;;3.31;94.06
59009;BME280;44794;42.652;23.318;2023-12-20T04:02:31;94708.84;;;3.38;93.33
59009;BME280;44794;42.652;23.318;2023-12-20T04:05:01;94713.56;;;3.29;93.69
59009;BME280;44794;42.652;23.318;2023-12-20T04:07:26;94708.50;;;3.27;94.74
59009;BME280;44794;42.652;23.318;2023-12-20T04:09:52;94704.88;;;3.31;93.58
59009;BME280;44794;42.652;23.318;2023-12-20T04:12:17;94705.72;;;3.32;92.98
59009;BME280;44794;42.652;23.318;2023-12-20T04:14:42;94702.41;;;3.30;92.76
59009;BME280;44794;42.652;23.318;2023-12-20T04:17:10;94702.88;;;3.38;91.67
59009;BME280;44794;42.652;23.318;2023-12-20T04:19:35;94700.41;;;3.36;91.52
59009;BME280;44794;42.652;23.318;2023-12-20T04:22:00;94691.97;;;3.14;91.85
59009;BME280;44794;42.652;23.318;2023-12-20T04:24:26;94694.66;;;3.11;92.65
59009;BME280;44794;42.652;23.318;2023-12-20T04:26:53;94688.22;;;3.03;91.86
59009;BME280;44794;42.652;23.318;2023-12-20T04:29:19;94683.91;;;3.03;93.29
59009;BME280;44794;42.652;23.318;2023-12-20T04:31:53;94677.75;;;3.07;93.74
59009;BME280;44794;42.652;23.318;2023-12-20T04:34:18;94681.09;;;3.09;93.12
59009;BME280;44794;42.652;23.318;2023-12-20T04:36:43;94676.00;;;3.08;93.62
59009;BME280;44794;42.652;23.318;2023-12-20T04:39:17;94665.84;;;3.06;94.23
59009;BME280;44794;42.652;23.318;2023-12-20T04:41:50;94664.59;;;3.15;94.81
59009;BME280;44794;42.652;23.318;2023-12-20T04:44:16;94673.81;;;3.19;94.08
59009;BME280;44794;42.652;23.318;2023-12-20T04:46:41;94662.28;;;3.09;95.66
59009;BME280;44794;42.652;23.318;2023-12-20T04:49:09;94665.16;;;3.21;95.33
59009;BME280;44794;42.652;23.318;2023-12-20T04:51:36;94667.53;;;3.26;94.58
59009;BME280;44794;42.652;23.318;2023-12-20T04:54:04;94665.28;;;3.18;93.90
59009;BME280;44794;42.652;23.318;2023-12-20T04:56:29;94664.75;;;3.12;94.19
59009;BME280;44794;42.652;23.318;2023-12-20T04:58:55;94669.91;;;3.10;93.78
59009;BME280;44794;42.652;23.318;2023-12-20T05:01:32;94664.03;;;3.08;92.50
59009;BME280;44794;42.652;23.318;2023-12-20T05:04:00;94663.97;;;3.10;91.75
59009;BME280;44794;42.652;23.318;2023-12-20T05:06:28;94657.28;;;2.88;92.25
59009;BME280;44794;42.652;23.318;2023-12-20T05:08:54;94658.09;;;2.88;95.19
59009;BME280;44794;42.652;23.318;2023-12-20T05:11:24;94646.84;;;2.92;95.10
59009;BME280;44794;42.652;23.318;2023-12-20T05:13:56;94648.63;;;2.90;94.86
59009;BME280;44794;42.652;23.318;2023-12-20T05:16:24;94644.28;;;2.92;93.45
59009;BME280;44794;42.652;23.318;2023-12-20T05:18:50;94652.09;;;2.89;94.22
59009;BME280;44794;42.652;23.318;2023-12-20T05:21:17;94656.25;;;2.92;93.79
59009;BME280;44794;42.652;23.318;2023-12-20T05:23:42;94645.72;;;2.97;93.72
59009;BME280;44794;42.652;23.318;2023-12-20T05:26:08;94647.94;;;2.87;93.45
59009;BME280;44794;42.652;23.318;2023-12-20T05:28:38;94632.84;;;2.79;93.64
59009;BME280;44794;42.652;23.318;2023-12-20T05:31:03;94636.97;;;2.83;93.72
59009;BME280;44794;42.652;23.318;2023-12-20T05:33:29;94633.84;;;2.77;93.86
59009;BME280;44794;42.652;23.318;2023-12-20T05:35:54;94631.69;;;2.86;95.30
59009;BME280;44794;42.652;23.318;2023-12-20T05:38:19;94629.16;;;2.66;94.78
59009;BME280;44794;42.652;23.318;2023-12-20T05:40:45;94643.53;;;2.70;94.03
59009;BME280;44794;42.652;23.318;2023-12-20T05:43:10;94630.50;;;2.36;96.06
59009;BME280;44794;42.652;23.318;2023-12-20T05:45:36;94638.50;;;2.29;96.28
59009;BME280;44794;42.652;23.318;2023-12-20T05:48:01;94626.31;;;2.34;96.88
59009;BME280;44794;42.652;23.318;2023-12-20T05:50:26;94628.69;;;2.38;97.11
59009;BME280;44794;42.652;23.318;2023-12-20T05:52:52;94624.22;;;2.43;95.88
59009;BME280;44794;42.652;23.318;2023-12-20T05:55:17;94618.63;;;2.34;96.11
59009;BME280;44794;42.652;23.318;2023-12-20T05:57:42;94623.38;;;2.43;95.00
59009;BME280;44794;42.652;23.318;2023-12-20T06:00:08;94620.75;;;2.24;93.99
59009;BME280;44794;42.652;23.318;2023-12-20T06:02:34;94618.34;;;2.22;93.75
59009;BME280;44794;42.652;23.318;2023-12-20T06:05:01;94617.56;;;2.20;93.66
59009;BME280;44794;42.652;23.318;2023-12-20T06:07:27;94613.22;;;2.22;94.41
59009;BME280;44794;42.652;23.318;2023-12-20T06:09:53;94611.28;;;2.26;94.24
59009;BME280;44794;42.652;23.318;2023-12-20T06:12:18;94602.25;;;2.18;98.00
59009;BME280;44794;42.652;23.318;2023-12-20T06:14:43;94606.00;;;2.10;97.17
59009;BME280;44794;42.652;23.318;2023-12-20T06:17:09;94610.38;;;2.08;97.90
59009;BME280;44794;42.652;23.318;2023-12-20T06:19:34;94618.00;;;2.09;96.61
59009;BME280;44794;42.652;23.318;2023-12-20T06:21:59;94623.56;;;2.19;95.73
59009;BME280;44794;42.652;23.318;2023-12-20T06:24:24;94619.16;;;2.22;95.36
59009;BME280;44794;42.652;23.318;2023-12-20T06:26:53;94625.94;;;2.23;94.67
59009;BME280;44794;42.652;23.318;2023-12-20T06:29:18;94621.66;;;2.43;94.87
59009;BME280;44794;42.652;23.318;2023-12-20T06:31:43;94618.84;;;2.49;93.12
59009;BME280;44794;42.652;23.318;2023-12-20T06:34:08;94630.47;;;2.56;93.09
59009;BME280;44794;42.652;23.318;2023-12-20T06:36:34;94616.00;;;2.55;92.61
59009;BME280;44794;42.652;23.318;2023-12-20T06:38:59;94622.44;;;2.64;92.25
59009;BME280;44794;42.652;23.318;2023-12-20T06:41:24;94616.03;;;2.74;92.11
59009;BME280;44794;42.652;23.318;2023-12-20T06:43:50;94614.22;;;2.76;91.71
59009;BME280;44794;42.652;23.318;2023-12-20T06:46:15;94617.78;;;2.92;90.67
59009;BME280;44794;42.652;23.318;2023-12-20T06:48:40;94618.00;;;3.05;89.56
59009;BME280;44794;42.652;23.318;2023-12-20T06:51:06;94610.66;;;3.16;89.08
59009;BME280;44794;42.652;23.318;2023-12-20T06:53:31;94612.38;;;3.16;88.00
59009;BME280;44794;42.652;23.318;2023-12-20T06:55:56;94617.72;;;3.30;86.80
59009;BME280;44794;42.652;23.318;2023-12-20T06:58:22;94614.88;;;3.36;86.65
59009;BME280;44794;42.652;23.318;2023-12-20T07:00:47;94609.31;;;3.45;86.32
59009;BME280;44794;42.652;23.318;2023-12-20T07:03:13;94610.81;;;3.49;86.85
59009;BME280;44794;42.652;23.318;2023-12-20T07:05:38;94606.16;;;3.57;86.29
59009;BME280;44794;42.652;23.318;2023-12-20T07:08:04;94604.63;;;3.71;86.13
59009;BME280;44794;42.652;23.318;2023-12-20T07:10:32;94600.13;;;3.93;85.86
59009;BME280;44794;42.652;23.318;2023-12-20T07:12:58;94611.25;;;4.10;84.63
59009;BME280;44794;42.652;23.318;2023-12-20T07:15:23;94600.78;;;3.79;83.30
59009;BME280;44794;42.652;23.318;2023-12-20T07:17:48;94593.97;;;3.62;86.21
59009;BME280;44794;42.652;23.318;2023-12-20T07:20:13;94588.66;;;3.65;87.00
59009;BME280;44794;42.652;23.318;2023-12-20T07:22:39;94582.88;;;3.78;88.52
59009;BME280;44794;42.652;23.318;2023-12-20T07:25:04;94580.00;;;4.01;87.87
59009;BME280;44794;42.652;23.318;2023-12-20T07:27:30;94576.69;;;4.16;87.41
59009;BME280;44794;42.652;23.318;2023-12-20T07:30:00;94578.28;;;4.35;85.82
59009;BME280;44794;42.652;23.318;2023-12-20T07:32:26;94569.56;;;4.38;85.81
59009;BME280;44794;42.652;23.318;2023-12-20T07:34:51;94573.66;;;4.42;86.40
59009;BME280;44794;42.652;23.318;2023-12-20T07:37:16;94575.63;;;4.37;86.61
59009;BME280;44794;42.652;23.318;2023-12-20T07:39:42;94575.38;;;4.41;88.05
59009;BME280;44794;42.652;23.318;2023-12-20T07:42:07;94574.75;;;4.53;87.69
59009;BME280;44794;42.652;23.318;2023-12-20T07:44:33;94576.63;;;4.66;86.67
59009;BME280;44794;42.652;23.318;2023-12-20T07:46:58;94591.63;;;4.58;86.05
59009;BME280;44794;42.652;23.318;2023-12-20T07:49:24;94580.50;;;4.58;86.10
59009;BME280;44794;42.652;23.318;2023-12-20T07:51:49;94575.97;;;4.46;85.25
59009;BME280;44794;42.652;23.318;2023-12-20T07:54:15;94573.81;;;4.39;85.32
59009;BME280;44794;42.652;23.318;2023-12-20T07:56:40;94567.34;;;4.47;87.02
59009;BME280;44794;42.652;23.318;2023-12-20T07:59:05;94567.34;;;4.79;87.00
59009;BME280;44794;42.652;23.318;2023-12-20T08:01:32;94564.69;;;4.81;85.56
59009;BME280;44794;42.652;23.318;2023-12-20T08:03:57;94566.09;;;5.03;85.00
59009;BME280;44794;42.652;23.318;2023-12-20T08:06:22;94563.19;;;5.40;84.55
59009;BME280;44794;42.652;23.318;2023-12-20T08:08:48;94573.16;;;5.46;81.07
59009;BME280;44794;42.652;23.318;2023-12-20T08:11:14;94575.38;;;5.67;80.62
59009;BME280;44794;42.652;23.318;2023-12-20T08:13:39;94563.53;;;5.94;80.17
59009;BME280;44794;42.652;23.318;2023-12-20T08:16:04;94561.31;;;5.88;78.03
59009;BME280;44794;42.652;23.318;2023-12-20T08:18:30;94569.41;;;5.82;78.03
59009;BME280;44794;42.652;23.318;2023-12-20T08:20:55;94556.72;;;5.48;80.98
59009;BME280;44794;42.652;23.318;2023-12-20T08:23:20;94551.88;;;5.89;83.15
59009;BME280;44794;42.652;23.318;2023-12-20T08:25:49;94554.56;;;6.30;81.89
59009;BME280;44794;42.652;23.318;2023-12-20T08:28:14;94562.69;;;6.66;79.41
59009;BME280;44794;42.652;23.318;2023-12-20T08:30:39;94546.91;;;6.43;79.39
59009;BME280;44794;42.652;23.318;2023-12-20T08:33:05;94560.19;;;6.51;77.08
59009;BME280;44794;42.652;23.318;2023-12-20T08:35:35;94536.66;;;5.84;78.10
59009;BME280;44794;42.652;23.318;2023-12-20T08:38:01;94536.34;;;5.44;82.23
59009;BME280;44794;42.652;23.318;2023-12-20T08:40:26;94524.22;;;5.30;85.36
59009;BME280;44794;42.652;23.318;2023-12-20T08:42:51;94519.69;;;5.35;86.82
59009;BME280;44794;42.652;23.318;2023-12-20T08:45:16;94500.00;;;5.34;87.36
59009;BME280;44794;42.652;23.318;2023-12-20T08:47:42;94499.72;;;5.23;87.76
59009;BME280;44794;42.652;23.318;2023-12-20T08:50:09;94507.88;;;5.47;85.68
59009;BME280;44794;42.652;23.318;2023-12-20T08:52:34;94504.97;;;5.22;88.41
59009;BME280;44794;42.652;23.318;2023-12-20T08:55:00;94500.72;;;5.21;91.97
59009;BME280;44794;42.652;23.318;2023-12-20T08:57:25;94495.84;;;5.32;94.37
59009;BME280;44794;42.652;23.318;2023-12-20T08:59:50;94499.34;;;6.05;90.35
59009;BME280;44794;42.652;23.318;2023-12-20T09:02:17;94514.22;;;6.29;85.37
59009;BME280;44794;42.652;23.318;2023-12-20T09:04:42;94496.44;;;6.53;84.34
59009;BME280;44794;42.652;23.318;2023-12-20T09:07:20;94499.91;;;7.07;80.12
59009;BME280;44794;42.652;23.318;2023-12-20T09:09:46;94487.13;;;7.32;76.26
59009;BME280;44794;42.652;23.318;2023-12-20T09:12:11;94494.19;;;7.43;73.54
59009;BME280;44794;42.652;23.318;2023-12-20T09:14:36;94490.94;;;7.92;72.65
59009;BME280;44794;42.652;23.318;2023-12-20T09:17:01;94464.22;;;7.40;71.73
59009;BME280;44794;42.652;23.318;2023-12-20T09:19:28;94474.44;;;7.68;72.52
59009;BME280;44794;42.652;23.318;2023-12-20T09:21:54;94457.59;;;7.75;71.28
59009;BME280;44794;42.652;23.318;2023-12-20T09:24:19;94448.97;;;7.88;70.45
59009;BME280;44794;42.652;23.318;2023-12-20T09:26:45;94458.59;;;7.99;69.08
59009;BME280;44794;42.652;23.318;2023-12-20T09:29:10;94454.88;;;8.03;69.81
59009;BME280;44794;42.652;23.318;2023-12-20T09:31:40;94440.09;;;8.05;69.06
59009;BME280;44794;42.652;23.318;2023-12-20T09:34:05;94440.75;;;8.21;67.67
59009;BME280;44794;42.652;23.318;2023-12-20T09:36:31;94439.97;;;8.06;67.26
59009;BME280;44794;42.652;23.318;2023-12-20T09:39:01;94435.84;;;8.04;68.38
59009;BME280;44794;42.652;23.318;2023-12-20T09:41:26;94434.91;;;8.05;67.21
59009;BME280;44794;42.652;23.318;2023-12-20T09:43:53;94428.03;;;8.18;66.40
59009;BME280;44794;42.652;23.318;2023-12-20T09:46:19;94423.91;;;8.27;66.30
59009;BME280;44794;42.652;23.318;2023-12-20T09:48:49;94418.59;;;8.17;66.62
59009;BME280;44794;42.652;23.318;2023-12-20T09:51:14;94415.16;;;8.04;66.46
59009;BME280;44794;42.652;23.318;2023-12-20T09:53:40;94407.72;;;8.12;68.14
59009;BME280;44794;42.652;23.318;2023-12-20T09:56:07;94407.56;;;8.15;67.42
59009;BME280;44794;42.652;23.318;2023-12-20T09:58:32;94401.44;;;8.40;67.27
59009;BME280;44794;42.652;23.318;2023-12-20T10:00:58;94394.78;;;7.87;69.10
59009;BME280;44794;42.652;23.318;2023-12-20T10:03:24;94398.72;;;8.05;69.35
59009;BME280;44794;42.652;23.318;2023-12-20T10:05:50;94393.53;;;8.54;68.40
59009;BME280;44794;42.652;23.318;2023-12-20T10:08:18;94396.47;;;8.25;67.32
59009;BME280;44794;42.652;23.318;2023-12-20T10:10:46;94381.41;;;8.05;69.09
59009;BME280;44794;42.652;23.318;2023-12-20T10:13:11;94385.88;;;7.91;69.24
59009;BME280;44794;42.652;23.318;2023-12-20T10:15:37;94370.63;;;8.25;68.59
59009;BME280;44794;42.652;23.318;2023-12-20T10:18:03;94371.63;;;8.22;68.93
59009;BME280;44794;42.652;23.318;2023-12-20T10:20:29;94363.78;;;8.24;68.63
59009;BME280;44794;42.652;23.318;2023-12-20T10:22:55;94358.25;;;8.41;68.20
59009;BME280;44794;42.652;23.318;2023-12-20T10:25:21;94365.41;;;8.37;68.33
59009;BME280;44794;42.652;23.318;2023-12-20T10:27:46;94350.41;;;8.42;68.43
59009;BME280;44794;42.652;23.318;2023-12-20T10:30:12;94357.75;;;8.84;66.64
59009;BME280;44794;42.652;23.318;2023-12-20T10:32:37;94347.19;;;8.75;66.99
59009;BME280;44794;42.652;23.318;2023-12-20T10:35:02;94341.22;;;8.97;66.46
59009;BME280;44794;42.652;23.318;2023-12-20T10:37:28;94345.19;;;8.91;65.34
59009;BME280;44794;42.652;23.318;2023-12-20T10:39:53;94343.34;;;8.44;65.10
59009;BME280;44794;42.652;23.318;2023-12-20T10:42:22;94326.16;;;8.79;65.93
59009;BME280;44794;42.652;23.318;2023-12-20T10:44:50;94323.72;;;8.65;66.25
59009;BME280;44794;42.652;23.318;2023-12-20T10:47:16;94311.97;;;8.49;66.75
59009;BME280;44794;42.652;23.318;2023-12-20T10:49:41;94323.44;;;8.57;67.16
59009;BME280;44794;42.652;23.318;2023-12-20T10:52:07;94318.50;;;8.78;67.91
59009;BME280;44794;42.652;23.318;2023-12-20T10:54:33;94298.53;;;8.56;67.04
59009;BME280;44794;42.652;23.318;2023-12-20T10:56:59;94307.78;;;8.11;68.47
59009;BME280;44794;42.652;23.318;2023-12-20T10:59:25;94291.34;;;7.99;68.87
59009;BME280;44794;42.652;23.318;2023-12-20T11:01:52;94300.88;;;7.99;70.14
59009;BME280;44794;42.652;23.318;2023-12-20T11:04:25;94274.84;;;7.52;71.97
59009;BME280;44794;42.652;23.318;2023-12-20T11:06:58;94283.63;;;7.62;72.40
59009;BME280;44794;42.652;23.318;2023-12-20T11:09:33;94271.72;;;7.84;72.62
59009;BME280;44794;42.652;23.318;2023-12-20T11:14:42;94264.28;;;7.80;73.25
59009;BME280;44794;42.652;23.318;2023-12-20T11:17:11;94264.25;;;8.05;72.21
59009;BME280;44794;42.652;23.318;2023-12-20T11:22:22;94250.78;;;8.24;70.38
59009;BME280;44794;42.652;23.318;2023-12-20T11:27:30;94247.91;;;8.17;70.58
59009;BME280;44794;42.652;23.318;2023-12-20T11:29:57;94235.91;;;8.16;70.67
59009;BME280;44794;42.652;23.318;2023-12-20T11:34:55;94202.72;;;7.61;74.49
59009;BME280;44794;42.652;23.318;2023-12-20T11:37:20;94197.22;;;7.41;76.46
59009;BME280;44794;42.652;23.318;2023-12-20T11:39:56;94193.63;;;7.19;79.47
59009;BME280;44794;42.652;23.318;2023-12-20T11:42:25;94194.22;;;6.97;82.03
59009;BME280;44794;42.652;23.318;2023-12-20T11:44:50;94186.25;;;6.88;82.78
59009;BME280;44794;42.652;23.318;2023-12-20T11:47:15;94179.56;;;6.98;83.60
59009;BME280;44794;42.652;23.318;2023-12-20T11:49:44;94162.00;;;7.03;83.73
59009;BME280;44794;42.652;23.318;2023-12-20T11:52:11;94156.22;;;6.87;84.54
59009;BME280;44794;42.652;23.318;2023-12-20T11:54:38;94156.84;;;7.03;84.77
59009;BME280;44794;42.652;23.318;2023-12-20T11:57:04;94155.91;;;7.29;84.10
59009;BME280;44794;42.652;23.318;2023-12-20T11:59:30;94142.59;;;7.22;83.92
59009;BME280;44794;42.652;23.318;2023-12-20T12:01:56;94136.88;;;7.54;82.27
59009;BME280;44794;42.652;23.318;2023-12-20T12:04:25;94138.75;;;7.52;82.61
59009;BME280;44794;42.652;23.318;2023-12-20T12:06:51;94122.06;;;7.56;81.45
59009;BME280;44794;42.652;23.318;2023-12-20T12:09:16;94140.41;;;7.89;80.65
59009;BME280;44794;42.652;23.318;2023-12-20T12:11:42;94133.56;;;8.47;77.25
59009;BME280;44794;42.652;23.318;2023-12-20T12:14:08;94143.72;;;8.61;74.66
59009;BME280;44794;42.652;23.318;2023-12-20T12:16:33;94124.50;;;8.87;74.01
59009;BME280;44794;42.652;23.318;2023-12-20T12:18:58;94120.41;;;9.06;72.26
59009;BME280;44794;42.652;23.318;2023-12-20T12:21:24;94127.34;;;9.06;70.27
59009;BME280;44794;42.652;23.318;2023-12-20T12:23:50;94120.59;;;8.82;72.37
59009;BME280;44794;42.652;23.318;2023-12-20T12:26:15;94125.72;;;9.27;70.93
59009;BME280;44794;42.652;23.318;2023-12-20T12:28:41;94129.03;;;9.51;69.94
59009;BME280;44794;42.652;23.318;2023-12-20T12:31:07;94121.72;;;9.56;68.03
59009;BME280;44794;42.652;23.318;2023-12-20T12:33:32;94126.19;;;9.75;67.21
59009;BME280;44794;42.652;23.318;2023-12-20T12:35:58;94111.97;;;9.26;68.58
59009;BME280;44794;42.652;23.318;2023-12-20T12:38:26;94109.03;;;9.31;69.36
59009;BME280;44794;42.652;23.318;2023-12-20T12:40:52;94119.84;;;9.36;69.29
59009;BME280;44794;42.652;23.318;2023-12-20T12:43:18;94121.84;;;9.21;68.87
59009;BME280;44794;42.652;23.318;2023-12-20T12:45:43;94108.69;;;8.68;72.71
59009;BME280;44794;42.652;23.318;2023-12-20T12:48:09;94098.81;;;8.73;73.33
59009;BME280;44794;42.652;23.318;2023-12-20T12:50:34;94106.38;;;8.19;75.02
59009;BME280;44794;42.652;23.318;2023-12-20T12:53:00;94089.03;;;8.08;78.92
59009;BME280;44794;42.652;23.318;2023-12-20T12:55:27;94099.91;;;8.47;77.77
59009;BME280;44794;42.652;23.318;2023-12-20T12:57:52;94092.56;;;8.30;77.14
59009;BME280;44794;42.652;23.318;2023-12-20T13:00:18;94093.31;;;8.43;76.27
59009;BME280;44794;42.652;23.318;2023-12-20T13:02:44;94097.16;;;8.72;74.14
59009;BME280;44794;42.652;23.318;2023-12-20T13:05:09;94101.47;;;8.61;73.67